Terminal Aerodrome Forecast
Issued by NWS

Home | Current Version | Previous Version | Text Only | Print | Product List | Glossary Off
Versions: 1 2 3 4 5 6 7 8 9 10 11 12 13 14 15 16 17 18 19 20 21

000
FTUS43 KUNR 160700 AAA
TAFGCC
TAF AMD
KGCC 160750Z 1608/1706 VRB05KT P6SM OVC004
     FM161800 16009KT P6SM SCT007=

USA.gov is the U.S. government's official web portal to all federal, state and local government web resources and services.